createdAt,value
2019-03-23T00:01:17.080Z,53.02
2019-03-23T00:03:48.359Z,53.23
2019-03-23T00:06:30.260Z,51.25
2019-03-23T00:08:52.621Z,51.75
2019-03-23T00:11:23.813Z,51.98
2019-03-23T00:13:54.999Z,49.75
2019-03-23T00:16:26.242Z,51.28
2019-03-23T00:18:57.524Z,52.20
2019-03-23T00:21:28.712Z,50.10
2019-03-23T00:23:59.901Z,50.70
2019-03-23T00:26:31.088Z,49.75
2019-03-23T00:29:02.350Z,50.15
2019-03-23T00:31:33.577Z,50.98
2019-03-23T00:34:04.757Z,52.08
2019-03-23T00:36:41.459Z,49.40
2019-03-23T00:39:09.452Z,51.10
2019-03-23T00:41:40.628Z,49.88
2019-03-23T00:44:11.810Z,49.83
2019-03-23T00:46:43.142Z,48.63
2019-03-23T00:49:14.321Z,49.42
2019-03-23T00:51:45.546Z,49.88
2019-03-23T00:54:16.770Z,48.25
2019-03-23T00:56:47.955Z,49.90
2019-03-23T00:59:19.175Z,47.75
2019-03-23T01:01:50.494Z,51.42
2019-03-23T01:04:21.669Z,51.00
2019-03-23T01:06:52.867Z,49.42
2019-03-23T01:09:24.078Z,48.55
2019-03-23T01:11:55.281Z,46.83
2019-03-23T01:14:26.579Z,47.20
2019-03-23T01:16:57.809Z,47.93
2019-03-23T01:19:29.007Z,53.10
2019-03-23T01:22:00.224Z,49.88
2019-03-23T01:24:31.545Z,49.05
2019-03-23T01:27:02.788Z,49.83
2019-03-23T01:29:33.968Z,49.67
2019-03-23T01:32:05.166Z,49.58
2019-03-23T01:34:36.335Z,49.35
2019-03-23T01:37:07.618Z,48.42
2019-03-23T01:39:38.815Z,52.30
2019-03-23T01:42:10.027Z,48.70
2019-03-23T01:44:41.237Z,53.40
2019-03-23T01:47:12.484Z,54.42
2019-03-23T01:49:44.370Z,54.77
2019-03-23T01:52:15.585Z,54.55
2019-03-23T01:54:46.750Z,54.85
2019-03-23T01:57:17.923Z,57.33
2019-03-23T01:59:49.154Z,59.10
2019-03-23T02:02:20.410Z,59.77
2019-03-23T02:04:51.593Z,62.62
2019-03-23T02:07:22.815Z,61.65
2019-03-23T02:09:54.094Z,65.17
2019-03-23T02:12:25.298Z,64.47
2019-03-23T02:14:56.542Z,65.97
2019-03-23T02:17:27.813Z,68.30
2019-03-23T02:19:59.031Z,69.72
2019-03-23T02:22:30.295Z,64.75
2019-03-23T02:25:01.594Z,69.00
2019-03-23T02:27:32.769Z,65.80
2019-03-23T02:30:04.025Z,65.37
2019-03-23T02:32:35.192Z,70.42
2019-03-23T02:35:08.286Z,65.25
2019-03-23T02:37:39.528Z,67.58
2019-03-23T02:40:11.274Z,64.85
2019-03-23T02:42:42.541Z,68.22
2019-03-23T02:45:14.596Z,68.40
2019-03-23T02:47:45.813Z,65.40
2019-03-23T02:50:17.048Z,72.45
2019-03-23T02:52:48.288Z,69.45
2019-03-23T02:55:20.221Z,68.87
2019-03-23T02:57:51.398Z,70.30
2019-03-23T03:00:22.599Z,67.42
2019-03-23T03:02:53.852Z,68.70
2019-03-23T03:05:25.031Z,66.17
2019-03-23T03:07:56.248Z,68.97
2019-03-23T03:10:42.259Z,67.67
2019-03-23T03:13:13.653Z,66.15
2019-03-23T03:15:44.844Z,70.15
2019-03-23T03:18:16.029Z,67.50
2019-03-23T03:20:47.321Z,68.47
2019-03-23T03:23:18.537Z,69.65
2019-03-23T03:25:49.798Z,68.85
2019-03-23T03:28:21.105Z,70.83
2019-03-23T03:30:52.375Z,71.25
2019-03-23T03:33:23.674Z,68.50
2019-03-23T03:35:54.947Z,70.62
2019-03-23T03:38:26.221Z,71.20
2019-03-23T03:40:57.445Z,68.10
2019-03-23T03:43:28.662Z,67.05
2019-03-23T03:45:59.894Z,67.17
2019-03-23T03:48:31.101Z,65.92
2019-03-23T03:51:02.344Z,66.37
2019-03-23T03:53:33.645Z,64.45
2019-03-23T03:56:04.982Z,65.85
2019-03-23T03:58:37.269Z,65.03
2019-03-23T04:01:08.605Z,66.05
2019-03-23T04:03:39.900Z,64.35
2019-03-23T04:06:11.104Z,64.15
2019-03-23T04:08:42.273Z,65.15
2019-03-23T04:11:13.457Z,64.05
2019-03-23T04:13:44.808Z,63.23
2019-03-23T04:16:16.054Z,62.78
2019-03-23T04:18:47.261Z,59.88
2019-03-23T04:21:18.469Z,61.05
2019-03-23T04:23:49.728Z,57.60
2019-03-23T04:26:20.910Z,56.35
2019-03-23T04:28:52.152Z,56.30
2019-03-23T04:31:23.418Z,54.50
2019-03-23T04:33:54.623Z,54.73
2019-03-23T04:36:25.842Z,55.12
2019-03-23T04:38:57.058Z,53.02
2019-03-23T04:41:28.222Z,52.25
2019-03-23T04:43:59.429Z,51.13
2019-03-23T04:46:30.651Z,51.23
2019-03-23T04:49:01.841Z,52.78
2019-03-23T04:51:33.084Z,49.35
2019-03-23T04:54:04.338Z,50.73
2019-03-23T04:56:35.535Z,52.78
2019-03-23T04:59:06.767Z,50.60
2019-03-23T05:01:38.026Z,49.13
2019-03-23T05:04:09.239Z,50.10
2019-03-23T05:06:42.538Z,47.27
2019-03-23T05:09:13.525Z,48.98
2019-03-23T05:11:44.734Z,47.40
2019-03-23T05:14:15.903Z,48.30
2019-03-23T05:16:47.079Z,52.78
2019-03-23T05:19:18.280Z,52.17
2019-03-23T05:21:49.501Z,53.10
2019-03-23T05:24:20.714Z,50.92
2019-03-23T05:26:51.906Z,55.33
2019-03-23T05:29:23.191Z,56.77
2019-03-23T05:31:54.348Z,57.27
2019-03-23T05:34:25.548Z,56.13
2019-03-23T05:36:56.751Z,54.20
2019-03-23T05:39:27.975Z,55.40
2019-03-23T05:41:59.170Z,55.40
2019-03-23T05:44:30.399Z,55.33
2019-03-23T05:47:01.586Z,54.77
2019-03-23T05:49:32.797Z,52.58
2019-03-23T05:52:03.971Z,54.53
2019-03-23T05:54:35.388Z,58.98
2019-03-23T05:57:06.832Z,57.40
2019-03-23T05:59:38.059Z,61.02
2019-03-23T06:02:09.357Z,58.98
2019-03-23T06:04:40.606Z,60.55
2019-03-23T06:07:11.799Z,61.75
2019-03-23T06:09:42.978Z,60.52
2019-03-23T06:12:14.419Z,59.75
2019-03-23T06:14:45.714Z,59.18
2019-03-23T06:17:16.945Z,61.37
2019-03-23T06:19:48.139Z,61.53
2019-03-23T06:22:19.302Z,56.50
2019-03-23T06:24:50.599Z,59.48
2019-03-23T06:27:21.938Z,58.48
2019-03-23T06:29:53.177Z,57.67
2019-03-23T06:32:25.288Z,59.98
2019-03-23T06:34:56.559Z,59.10
2019-03-23T06:37:27.795Z,58.08
2019-03-23T06:40:00.803Z,57.23
2019-03-23T06:42:32.401Z,57.10
2019-03-23T06:45:03.658Z,57.60
2019-03-23T06:47:34.866Z,55.60
2019-03-23T06:50:06.818Z,54.90
2019-03-23T06:52:38.018Z,52.35
2019-03-23T06:55:09.954Z,51.15
2019-03-23T06:57:41.121Z,48.42
2019-03-23T07:00:13.861Z,46.30
2019-03-23T07:02:45.061Z,46.15
2019-03-23T07:05:16.843Z,44.25
2019-03-23T07:07:48.086Z,41.10
2019-03-23T07:10:19.336Z,42.70
2019-03-23T07:12:50.797Z,43.40
2019-03-23T07:15:22.051Z,45.17
2019-03-23T07:17:53.238Z,42.30
2019-03-23T07:20:24.454Z,42.90
2019-03-23T07:22:55.739Z,41.73
2019-03-23T07:25:26.996Z,42.33
2019-03-23T07:27:58.244Z,40.48
2019-03-23T07:30:29.463Z,41.05
2019-03-23T07:33:00.784Z,41.73
2019-03-23T07:35:31.942Z,43.25
2019-03-23T07:38:03.528Z,40.98
2019-03-23T07:40:34.857Z,41.18
2019-03-23T07:43:06.027Z,42.67
2019-03-23T07:45:37.240Z,44.05
2019-03-23T07:48:08.473Z,42.93
2019-03-23T07:50:39.804Z,45.03
2019-03-23T07:53:11.079Z,42.53
2019-03-23T07:55:42.471Z,45.10
2019-03-23T07:58:13.620Z,41.40
2019-03-23T08:00:44.880Z,41.30
2019-03-23T08:03:16.059Z,41.23
2019-03-23T08:05:47.274Z,43.28
2019-03-23T08:08:18.494Z,45.12
2019-03-23T08:10:49.678Z,40.10
2019-03-23T08:13:20.923Z,42.27
2019-03-23T08:15:52.178Z,42.23
2019-03-23T08:18:23.399Z,44.77
2019-03-23T08:20:54.626Z,43.60
2019-03-23T08:23:25.806Z,42.43
2019-03-23T08:25:56.965Z,42.00
2019-03-23T08:28:28.114Z,43.20
2019-03-23T08:30:59.320Z,43.80
2019-03-23T08:33:30.496Z,46.73
2019-03-23T08:36:02.002Z,44.98
2019-03-23T08:38:33.247Z,46.50
2019-03-23T08:41:04.419Z,44.00
2019-03-23T08:43:35.566Z,45.75
2019-03-23T08:46:06.784Z,43.48
2019-03-23T08:48:37.955Z,43.85
2019-03-23T08:51:09.172Z,43.00
2019-03-23T08:53:40.391Z,42.80
2019-03-23T08:56:11.564Z,42.65
2019-03-23T08:58:57.887Z,44.18
2019-03-23T09:01:29.074Z,43.55
2019-03-23T09:04:00.275Z,41.23
2019-03-23T09:06:31.573Z,42.25
2019-03-23T09:09:02.931Z,43.87
2019-03-23T09:11:34.074Z,41.53
2019-03-23T09:14:05.435Z,43.38
2019-03-23T09:16:36.646Z,44.08
2019-03-23T09:19:07.810Z,43.35
2019-03-23T09:21:38.989Z,41.92
2019-03-23T09:24:10.155Z,42.17
2019-03-23T09:26:41.306Z,41.90
2019-03-23T09:29:12.512Z,43.33
2019-03-23T09:31:43.743Z,44.05
2019-03-23T09:34:14.944Z,45.08
2019-03-23T09:36:46.155Z,41.90
2019-03-23T09:39:17.389Z,46.53
2019-03-23T09:41:48.543Z,45.67
2019-03-23T09:44:19.822Z,44.42
2019-03-23T09:46:51.009Z,42.53
2019-03-23T09:49:23.969Z,42.83
2019-03-23T09:51:55.166Z,44.30
2019-03-23T09:54:26.366Z,44.23
2019-03-23T09:56:59.526Z,46.88
2019-03-23T09:59:30.574Z,44.35
2019-03-23T10:02:01.900Z,45.05
2019-03-23T10:04:33.130Z,46.40
2019-03-23T10:07:04.718Z,47.03
2019-03-23T10:09:35.951Z,46.92
2019-03-23T10:12:07.137Z,45.28
2019-03-23T10:14:38.296Z,49.25
2019-03-23T10:17:09.549Z,47.43
2019-03-23T10:19:40.707Z,46.28
2019-03-23T10:22:11.905Z,44.30
2019-03-23T10:24:43.121Z,49.08
2019-03-23T10:27:14.333Z,48.25
2019-03-23T10:29:45.487Z,47.88
2019-03-23T10:32:16.806Z,48.08
2019-03-23T10:34:48.247Z,46.33
2019-03-23T10:37:19.443Z,47.30
2019-03-23T10:39:50.688Z,47.30
2019-03-23T10:42:21.880Z,48.80
2019-03-23T10:44:53.031Z,45.03
2019-03-23T10:47:24.346Z,46.75
2019-03-23T10:49:55.566Z,48.05
2019-03-23T10:52:26.779Z,48.45
2019-03-23T10:54:58.012Z,46.48
2019-03-23T10:57:29.167Z,46.75
2019-03-23T11:00:00.337Z,47.98
2019-03-23T11:02:31.583Z,45.67
2019-03-23T11:05:02.774Z,42.65
2019-03-23T11:07:33.969Z,46.95
2019-03-23T11:10:05.570Z,45.28
2019-03-23T11:12:37.217Z,46.13
2019-03-23T11:15:09.069Z,53.52
2019-03-23T11:17:40.805Z,50.15
2019-03-23T11:20:12.170Z,49.10
2019-03-23T11:22:43.526Z,46.00
2019-03-23T11:25:14.929Z,57.53
2019-03-23T11:27:46.162Z,55.55
2019-03-23T11:30:18.001Z,57.43
2019-03-23T11:32:49.252Z,50.08
2019-03-23T11:35:20.511Z,48.28
2019-03-23T11:37:51.979Z,42.95
2019-03-23T11:40:23.391Z,53.80
2019-03-23T11:42:54.622Z,53.05
2019-03-23T11:45:25.854Z,55.58
2019-03-23T11:47:57.180Z,49.73
2019-03-23T11:50:28.848Z,62.17
2019-03-23T11:53:01.518Z,52.73
2019-03-23T11:55:32.788Z,49.88
2019-03-23T11:58:04.059Z,50.35
2019-03-23T12:00:35.375Z,53.75
2019-03-23T12:03:06.544Z,51.83
2019-03-23T12:05:37.709Z,50.63
2019-03-23T12:08:08.936Z,50.60
2019-03-23T12:10:40.192Z,53.42
2019-03-23T12:13:11.393Z,48.48
2019-03-23T12:15:42.633Z,50.83
2019-03-23T12:18:13.842Z,47.03
2019-03-23T12:20:45.005Z,50.05
2019-03-23T12:23:16.200Z,49.95
2019-03-23T12:25:47.436Z,49.38
2019-03-23T12:28:18.695Z,44.63
2019-03-23T12:30:50.025Z,40.08
2019-03-23T12:33:21.539Z,40.05
2019-03-23T12:35:53.165Z,39.90
2019-03-23T12:38:24.361Z,39.92
2019-03-23T12:40:55.558Z,40.92
2019-03-23T12:43:26.749Z,37.78
2019-03-23T12:45:57.943Z,43.63
2019-03-23T12:48:29.121Z,39.75
2019-03-23T12:51:00.344Z,39.33
2019-03-23T12:53:31.550Z,39.25
2019-03-23T12:56:02.758Z,42.80
2019-03-23T12:58:34.012Z,40.58
2019-03-23T13:01:05.223Z,43.40
2019-03-23T13:03:36.388Z,42.05
2019-03-23T13:06:07.677Z,43.30
2019-03-23T13:08:38.823Z,41.98
2019-03-23T13:11:09.976Z,44.23
2019-03-23T13:13:41.171Z,45.60
2019-03-23T13:16:12.337Z,46.80
2019-03-23T13:18:43.483Z,53.05
2019-03-23T13:21:14.692Z,49.20
2019-03-23T13:23:45.863Z,55.35
2019-03-23T13:26:17.111Z,47.00
2019-03-23T13:28:48.334Z,52.05
2019-03-23T13:31:19.539Z,43.40
2019-03-23T13:33:50.697Z,48.35
2019-03-23T13:36:21.879Z,48.78
2019-03-23T13:38:53.122Z,46.88
2019-03-23T13:41:24.306Z,46.02
2019-03-23T13:43:55.468Z,46.68
2019-03-23T13:46:26.633Z,45.65
2019-03-23T13:48:57.815Z,54.95
2019-03-23T13:51:29.018Z,50.75
2019-03-23T13:54:00.247Z,46.37
2019-03-23T13:56:31.441Z,40.08
2019-03-23T13:59:02.672Z,38.75
2019-03-23T14:01:33.856Z,32.63
2019-03-23T14:04:05.042Z,34.33
2019-03-23T14:06:36.193Z,25.45
2019-03-23T14:09:09.256Z,26.62
2019-03-23T14:11:40.453Z,21.45
2019-03-23T14:14:11.616Z,19.30
2019-03-23T14:16:42.794Z,20.25
2019-03-23T14:19:13.953Z,19.75
2019-03-23T14:21:45.108Z,17.17
2019-03-23T14:24:16.290Z,17.90
2019-03-23T14:26:47.434Z,16.02
2019-03-23T14:29:18.591Z,16.85
2019-03-23T14:31:49.773Z,13.83
2019-03-23T14:34:20.923Z,13.65
2019-03-23T14:36:52.068Z,13.60
2019-03-23T14:39:23.265Z,13.05
2019-03-23T14:41:54.426Z,11.73
2019-03-23T14:44:25.569Z,9.00
2019-03-23T14:46:56.779Z,6.15
2019-03-23T14:49:27.929Z,3.83
2019-03-23T14:51:59.156Z,2.85
2019-03-23T14:54:30.344Z,2.47
2019-03-23T14:57:01.494Z,0.93
2019-03-23T14:59:32.707Z,1.42
2019-03-23T15:02:03.898Z,1.15
2019-03-23T15:04:35.041Z,1.60
2019-03-23T15:07:06.225Z,1.07
2019-03-23T15:09:37.421Z,0.90
2019-03-23T15:12:15.044Z,0.75
2019-03-23T15:14:41.615Z,1.12
2019-03-23T15:17:12.753Z,0.82
2019-03-23T15:19:43.911Z,0.60
2019-03-23T15:22:15.110Z,0.95
2019-03-23T15:24:46.289Z,1.25
2019-03-23T15:27:17.454Z,1.20
2019-03-23T15:29:48.643Z,1.07
2019-03-23T15:32:19.811Z,1.42
2019-03-23T15:34:50.992Z,0.75
2019-03-23T15:37:22.313Z,0.60
2019-03-23T15:39:53.483Z,1.50
2019-03-23T15:42:25.193Z,1.45
2019-03-23T15:44:56.613Z,1.12
2019-03-23T15:47:27.873Z,0.68
2019-03-23T15:49:59.047Z,1.07
2019-03-23T15:52:30.344Z,0.68
2019-03-23T15:55:03.324Z,0.70
2019-03-23T15:57:34.499Z,1.00
2019-03-23T16:00:07.199Z,0.90
2019-03-23T16:02:38.358Z,0.90
2019-03-23T16:05:11.069Z,0.62
2019-03-23T16:07:42.353Z,1.20
2019-03-23T16:10:13.591Z,0.90
2019-03-23T16:12:44.792Z,0.85
2019-03-23T16:15:17.069Z,0.42
2019-03-23T16:17:48.211Z,0.50
2019-03-23T16:20:19.466Z,1.00
2019-03-23T16:22:50.820Z,1.72
2019-03-23T16:25:22.057Z,1.22
2019-03-23T16:27:53.205Z,0.47
2019-03-23T16:30:34.531Z,1.05
2019-03-23T16:33:05.728Z,0.82
2019-03-23T16:35:36.919Z,1.40
2019-03-23T16:38:08.221Z,0.62
2019-03-23T16:40:39.552Z,0.95
2019-03-23T16:43:10.737Z,0.30
2019-03-23T16:45:41.943Z,0.40
2019-03-23T16:48:13.202Z,0.80
2019-03-23T16:50:44.346Z,0.53
2019-03-23T16:53:15.536Z,1.07
2019-03-23T16:55:46.767Z,3.95
2019-03-23T16:58:17.959Z,0.68
2019-03-23T17:00:49.168Z,1.87
2019-03-23T17:03:20.391Z,1.95
2019-03-23T17:05:51.620Z,2.30
2019-03-23T17:08:22.824Z,2.02
2019-03-23T17:10:54.006Z,2.27
2019-03-23T17:13:25.256Z,2.92
2019-03-23T17:15:56.563Z,3.05
2019-03-23T17:18:29.613Z,2.30
2019-03-23T17:21:00.873Z,1.10
2019-03-23T17:23:32.056Z,0.78
2019-03-23T17:26:03.252Z,0.20
2019-03-23T17:28:34.447Z,0.30
2019-03-23T17:31:05.597Z,0.70
2019-03-23T17:33:36.775Z,0.45
2019-03-23T17:36:08.029Z,0.28
2019-03-23T17:38:39.193Z,0.37
2019-03-23T17:41:10.581Z,0.20
2019-03-23T17:43:41.906Z,0.68
2019-03-23T17:46:13.090Z,0.42
2019-03-23T17:48:44.225Z,0.57
2019-03-23T17:51:15.477Z,0.55
2019-03-23T17:53:46.639Z,0.75
2019-03-23T17:56:17.852Z,0.20
2019-03-23T17:58:49.319Z,0.93
2019-03-23T18:01:21.002Z,2.00
2019-03-23T18:03:52.187Z,0.90
2019-03-23T18:06:23.446Z,0.50
2019-03-23T18:08:54.635Z,1.45
2019-03-23T18:11:25.875Z,0.57
2019-03-23T18:13:57.186Z,0.70
2019-03-23T18:16:28.443Z,0.40
2019-03-23T18:18:59.644Z,0.47
2019-03-23T18:21:31.826Z,0.40
2019-03-23T18:24:02.978Z,0.90
2019-03-23T18:26:34.159Z,0.90
2019-03-23T18:29:05.375Z,0.68
2019-03-23T18:31:38.047Z,1.42
2019-03-23T18:34:09.251Z,0.60
2019-03-23T18:36:40.436Z,0.65
2019-03-23T18:39:11.715Z,1.20
2019-03-23T18:41:42.909Z,1.17
2019-03-23T18:44:16.306Z,0.88
2019-03-23T18:46:47.638Z,1.35
2019-03-23T18:49:18.817Z,1.07
2019-03-23T18:51:49.995Z,0.50
2019-03-23T18:54:21.304Z,0.72
2019-03-23T18:56:52.448Z,1.35
2019-03-23T18:59:23.643Z,1.07
2019-03-23T19:01:54.844Z,1.75
2019-03-23T19:04:25.980Z,0.80
2019-03-23T19:06:57.150Z,1.05
2019-03-23T19:09:28.403Z,0.57
2019-03-23T19:11:59.573Z,1.12
2019-03-23T19:14:30.727Z,2.70
2019-03-23T19:17:01.915Z,1.80
2019-03-23T19:19:33.140Z,0.88
2019-03-23T19:22:04.299Z,1.10
2019-03-23T19:24:35.612Z,1.60
2019-03-23T19:27:06.790Z,0.85
2019-03-23T19:29:37.930Z,0.72
2019-03-23T19:32:09.110Z,1.22
2019-03-23T19:34:40.269Z,0.80
2019-03-23T19:37:11.499Z,0.90
2019-03-23T19:39:42.750Z,2.45
2019-03-23T19:42:13.992Z,1.40
2019-03-23T19:44:45.166Z,1.57
2019-03-23T19:47:16.464Z,1.67
2019-03-23T19:49:47.612Z,2.10
2019-03-23T19:52:18.799Z,1.50
2019-03-23T19:54:49.981Z,0.98
2019-03-23T19:57:21.180Z,1.40
2019-03-23T19:59:52.483Z,1.65
2019-03-23T20:02:23.688Z,2.25
2019-03-23T20:04:54.859Z,1.12
2019-03-23T20:07:32.999Z,1.30
2019-03-23T20:09:59.103Z,0.90
2019-03-23T20:12:30.292Z,0.98
2019-03-23T20:15:01.450Z,1.95
2019-03-23T20:17:32.654Z,2.65
2019-03-23T20:20:04.806Z,1.22
2019-03-23T20:22:36.040Z,1.02
2019-03-23T20:25:07.795Z,1.15
2019-03-23T20:27:38.998Z,1.12
2019-03-23T20:30:11.496Z,1.42
2019-03-23T20:32:42.738Z,2.67
2019-03-23T20:35:14.463Z,0.82
2019-03-23T20:37:45.719Z,1.95
2019-03-23T20:40:16.876Z,1.95
2019-03-23T20:42:48.051Z,1.00
2019-03-23T20:45:33.299Z,1.50
2019-03-23T20:48:05.248Z,1.20
2019-03-23T20:50:36.484Z,1.10
2019-03-23T20:53:07.800Z,1.57
2019-03-23T20:55:38.975Z,1.10
2019-03-23T20:58:10.151Z,1.37
2019-03-23T21:00:41.407Z,0.90
2019-03-23T21:03:12.632Z,1.65
2019-03-23T21:05:43.848Z,1.75
2019-03-23T21:08:15.022Z,0.98
2019-03-23T21:10:46.179Z,1.60
2019-03-23T21:13:17.320Z,1.57
2019-03-23T21:15:48.542Z,1.35
2019-03-23T21:18:19.711Z,0.95
2019-03-23T21:20:50.846Z,1.80
2019-03-23T21:23:22.038Z,2.10
2019-03-23T21:25:53.203Z,0.93
2019-03-23T21:28:24.339Z,1.22
2019-03-23T21:30:55.508Z,1.12
2019-03-23T21:33:31.943Z,1.20
2019-03-23T21:35:59.590Z,1.40
2019-03-23T21:38:30.732Z,0.72
2019-03-23T21:41:01.890Z,1.35
2019-03-23T21:43:33.191Z,0.82
2019-03-23T21:46:04.352Z,1.40
2019-03-23T21:48:35.534Z,1.25
2019-03-23T21:51:06.750Z,1.27
2019-03-23T21:53:38.852Z,1.45
2019-03-23T21:56:10.190Z,1.35
2019-03-23T21:58:41.439Z,1.67
2019-03-23T22:01:12.624Z,0.82
2019-03-23T22:03:43.776Z,0.68
2019-03-23T22:06:14.989Z,1.35
2019-03-23T22:08:46.149Z,1.82
2019-03-23T22:11:17.373Z,1.10
2019-03-23T22:13:48.582Z,1.57
2019-03-23T22:16:19.731Z,1.27
2019-03-23T22:18:50.912Z,0.80
2019-03-23T22:21:22.119Z,1.37
2019-03-23T22:23:53.291Z,1.02
2019-03-23T22:26:24.428Z,1.72
2019-03-23T22:28:55.638Z,2.35
2019-03-23T22:31:26.790Z,1.15
2019-03-23T22:33:57.967Z,1.22
2019-03-23T22:36:29.208Z,1.82
2019-03-23T22:39:00.413Z,2.05
2019-03-23T22:41:31.912Z,1.25
2019-03-23T22:44:03.120Z,1.62
2019-03-23T22:46:34.329Z,2.02
2019-03-23T22:49:05.491Z,1.77
2019-03-23T22:51:36.696Z,2.00
2019-03-23T22:54:07.908Z,1.42
2019-03-23T22:56:39.086Z,0.80
2019-03-23T22:59:10.268Z,1.35
2019-03-23T23:01:41.546Z,1.37
2019-03-23T23:04:12.736Z,1.70
2019-03-23T23:06:43.932Z,1.07
2019-03-23T23:09:15.137Z,2.33
2019-03-23T23:11:46.325Z,1.90
2019-03-23T23:14:17.505Z,1.55
2019-03-23T23:16:48.667Z,0.85
2019-03-23T23:19:19.904Z,1.52
2019-03-23T23:21:51.123Z,1.80
2019-03-23T23:24:22.321Z,1.55
2019-03-23T23:26:53.500Z,0.80
2019-03-23T23:29:24.656Z,0.70
2019-03-23T23:31:55.852Z,1.82
2019-03-23T23:34:27.082Z,1.42
2019-03-23T23:36:58.292Z,0.57
2019-03-23T23:39:29.420Z,1.15
2019-03-23T23:42:00.591Z,0.95
2019-03-23T23:44:31.806Z,2.30
2019-03-23T23:47:02.997Z,1.20
2019-03-23T23:49:34.212Z,1.65
2019-03-23T23:52:05.547Z,0.68
2019-03-23T23:54:36.686Z,1.62
2019-03-23T23:57:07.833Z,0.82
2019-03-23T23:59:39.067Z,1.42
